createdAt,value
2023-03-28T00:00:01.602Z,54
2023-03-28T00:01:02.590Z,54.1
2023-03-28T00:02:03.735Z,54.1
2023-03-28T00:03:04.672Z,53.9
2023-03-28T00:04:05.671Z,54.4
2023-03-28T00:05:06.557Z,54.6
2023-03-28T00:06:07.651Z,54.6
2023-03-28T00:07:08.649Z,54.6
2023-03-28T00:08:09.585Z,54.3
2023-03-28T00:09:10.611Z,54
2023-03-28T00:10:11.568Z,53.8
2023-03-28T00:11:12.600Z,53.9
2023-03-28T00:12:13.707Z,53.6
2023-03-28T00:13:14.559Z,53.9
2023-03-28T00:14:15.458Z,53.9
2023-03-28T00:15:16.563Z,53.9
2023-03-28T00:16:17.645Z,53.7
2023-03-28T00:17:18.586Z,53.8
2023-03-28T00:18:19.583Z,53.8
2023-03-28T00:19:20.638Z,53.7
2023-03-28T00:20:21.813Z,53.4
2023-03-28T00:21:22.818Z,53.7
2023-03-28T00:22:23.822Z,53.6
2023-03-28T00:23:24.645Z,53.9
2023-03-28T00:24:25.618Z,54
2023-03-28T00:25:26.799Z,54.1
2023-03-28T00:26:27.560Z,54.5
2023-03-28T00:27:28.598Z,54.5
2023-03-28T00:28:29.648Z,54.5
2023-03-28T00:29:30.820Z,54.3
2023-03-28T00:30:31.663Z,54.2
2023-03-28T00:31:32.817Z,54
2023-03-28T00:32:33.702Z,54.2
2023-03-28T00:33:34.658Z,54.3
2023-03-28T00:34:35.533Z,54.3
2023-03-28T00:35:36.544Z,54.4
2023-03-28T00:36:37.602Z,54.3
2023-03-28T00:37:38.598Z,54.2
2023-03-28T00:38:39.609Z,54.1
2023-03-28T00:39:40.742Z,54.2
2023-03-28T00:40:41.604Z,54.4
2023-03-28T00:41:42.600Z,54.5
2023-03-28T00:42:43.624Z,54.5
2023-03-28T00:43:44.583Z,54.6
2023-03-28T00:44:45.644Z,54.6
2023-03-28T00:45:53.130Z,54.6
2023-03-28T00:46:47.593Z,54.5
2023-03-28T00:47:48.656Z,54.6
2023-03-28T00:48:49.641Z,54.5
2023-03-28T00:49:50.542Z,54.3
2023-03-28T00:50:51.580Z,54.1
2023-03-28T00:51:52.720Z,54
2023-03-28T00:52:53.639Z,54
2023-03-28T00:53:54.695Z,54.1
2023-03-28T00:54:55.567Z,54.3
2023-03-28T00:55:56.954Z,54.8
2023-03-28T00:56:57.820Z,55.4
2023-03-28T00:57:58.646Z,55.4
2023-03-28T00:58:59.706Z,55.4
2023-03-28T01:00:00.618Z,55.4
2023-03-28T01:01:01.768Z,55.3
2023-03-28T01:02:02.617Z,55.1
2023-03-28T01:03:03.806Z,55.2
2023-03-28T01:04:04.617Z,55.1
2023-03-28T01:05:05.514Z,54.9
2023-03-28T01:06:06.577Z,54.6
2023-03-28T01:07:07.635Z,54.3
2023-03-28T01:08:08.615Z,54
2023-03-28T01:09:09.536Z,54.1
2023-03-28T01:10:10.634Z,54.1
2023-03-28T01:11:11.654Z,54
2023-03-28T01:12:12.659Z,54.1
2023-03-28T01:13:13.665Z,54.2
2023-03-28T01:14:14.673Z,54.5
2023-03-28T01:15:15.633Z,55.3
2023-03-28T01:16:16.740Z,55.5
2023-03-28T01:17:17.642Z,55.3
2023-03-28T01:18:18.598Z,54.9
2023-03-28T01:19:19.613Z,54.6
2023-03-28T01:20:20.625Z,55.1
2023-03-28T01:21:21.560Z,56.2
2023-03-28T01:22:22.596Z,56.8
2023-03-28T01:23:23.652Z,56.9
2023-03-28T01:24:24.593Z,57.3
2023-03-28T01:25:25.800Z,57.2
2023-03-28T01:26:26.685Z,57.2
2023-03-28T01:27:27.595Z,57.2
2023-03-28T01:28:28.612Z,57.2
2023-03-28T01:29:29.636Z,56.7
2023-03-28T01:30:30.619Z,56.3
2023-03-28T01:31:31.721Z,56.1
2023-03-28T01:32:32.654Z,56.5
2023-03-28T01:33:33.638Z,56.8
2023-03-28T01:34:34.673Z,56.9
2023-03-28T01:35:35.711Z,57.3
2023-03-28T01:36:36.677Z,57.5
2023-03-28T01:37:37.666Z,57.3
2023-03-28T01:38:38.692Z,57.3
2023-03-28T01:39:39.736Z,57.3
2023-03-28T01:40:40.711Z,57.4
2023-03-28T01:41:41.629Z,57.2
2023-03-28T01:42:42.609Z,57
2023-03-28T01:43:43.575Z,56.8
2023-03-28T01:44:44.691Z,56.9
2023-03-28T01:45:45.640Z,57.1
2023-03-28T01:46:46.673Z,57.2
2023-03-28T01:47:47.668Z,57.2
2023-03-28T01:48:48.628Z,57.6
2023-03-28T01:49:49.591Z,57.9
2023-03-28T01:50:50.689Z,57.9
2023-03-28T01:51:51.678Z,57.8
2023-03-28T01:52:52.633Z,57.6
2023-03-28T01:53:53.668Z,57.6
2023-03-28T01:54:54.610Z,57.6
2023-03-28T01:55:55.738Z,57.4
2023-03-28T01:56:56.696Z,57.3
2023-03-28T01:57:57.593Z,57.4
2023-03-28T01:58:58.638Z,57.5
2023-03-28T01:59:59.557Z,57.4
2023-03-28T02:01:00.591Z,57.5
2023-03-28T02:02:01.718Z,57.6
2023-03-28T02:03:02.799Z,57.8
2023-03-28T02:04:03.623Z,58.4
2023-03-28T02:05:04.693Z,58.9
2023-03-28T02:06:05.727Z,59.2
2023-03-28T02:07:06.580Z,59.3
2023-03-28T02:08:07.691Z,59.8
2023-03-28T02:09:08.767Z,60
2023-03-28T02:10:09.692Z,59.8
2023-03-28T02:11:10.677Z,59.8
2023-03-28T02:12:11.722Z,59.7
2023-03-28T02:13:12.711Z,59.6
2023-03-28T02:14:13.650Z,60.1
2023-03-28T02:15:14.712Z,60.5
2023-03-28T02:16:15.749Z,60.6
2023-03-28T02:17:16.749Z,60.2
2023-03-28T02:18:17.621Z,60.3
2023-03-28T02:19:18.654Z,60.2
2023-03-28T02:20:19.723Z,60.1
2023-03-28T02:21:20.674Z,59.9
2023-03-28T02:22:21.705Z,60.2
2023-03-28T02:23:22.640Z,60.5
2023-03-28T02:24:23.636Z,60.6
2023-03-28T02:25:24.682Z,60.5
2023-03-28T02:26:25.680Z,59.8
2023-03-28T02:27:26.637Z,60.3
2023-03-28T02:28:27.653Z,60.7
2023-03-28T02:29:28.656Z,60.9
2023-03-28T02:30:29.641Z,60.6
2023-03-28T02:31:30.682Z,60.4
2023-03-28T02:32:31.673Z,60.2
2023-03-28T02:33:32.667Z,60.3
2023-03-28T02:34:33.637Z,60.3
2023-03-28T02:35:34.700Z,60.4
2023-03-28T02:36:35.719Z,60.6
2023-03-28T02:37:36.726Z,60.2
2023-03-28T02:38:37.641Z,59.8
2023-03-28T02:39:38.639Z,59.5
2023-03-28T02:40:39.719Z,60
2023-03-28T02:41:40.829Z,60.2
2023-03-28T02:42:41.673Z,60
2023-03-28T02:43:42.640Z,60.1
2023-03-28T02:44:43.627Z,60.5
2023-03-28T02:45:44.693Z,60.4
2023-03-28T02:46:45.758Z,60.4
2023-03-28T02:47:46.685Z,60.5
2023-03-28T02:48:47.721Z,60.2
2023-03-28T02:49:50.602Z,59.9
2023-03-28T02:50:49.698Z,59.7
2023-03-28T02:51:50.631Z,59.4
2023-03-28T02:52:51.645Z,59.3
2023-03-28T02:53:52.728Z,59
2023-03-28T02:54:53.640Z,58.8
2023-03-28T02:55:54.679Z,58.7
2023-03-28T02:56:55.713Z,58.8
2023-03-28T02:57:56.738Z,58.8
2023-03-28T02:58:57.595Z,58.9
2023-03-28T02:59:58.680Z,59.1
2023-03-28T03:00:59.729Z,58.9
2023-03-28T03:02:00.651Z,58.6
2023-03-28T03:03:01.774Z,58.6
2023-03-28T03:04:02.819Z,58.3
2023-03-28T03:05:03.746Z,58.5
2023-03-28T03:06:04.755Z,58.6
2023-03-28T03:07:05.645Z,58.4
2023-03-28T03:08:06.690Z,58.3
2023-03-28T03:09:07.634Z,58.1
2023-03-28T03:10:08.703Z,58.4
2023-03-28T03:11:09.721Z,58.8
2023-03-28T03:12:10.669Z,58.5
2023-03-28T03:13:11.721Z,58.7
2023-03-28T03:14:12.697Z,58.8
2023-03-28T03:15:13.671Z,59
2023-03-28T03:16:14.822Z,58.9
2023-03-28T03:17:15.668Z,58.7
2023-03-28T03:18:16.634Z,58.4
2023-03-28T03:19:17.680Z,58.1
2023-03-28T03:20:18.716Z,57.8
2023-03-28T03:21:19.647Z,57.7
2023-03-28T03:22:21.100Z,57.2
2023-03-28T03:23:21.698Z,56.9
2023-03-28T03:24:22.726Z,56.9
2023-03-28T03:25:23.729Z,56.5
2023-03-28T03:26:24.639Z,56.4
2023-03-28T03:27:25.746Z,56.8
2023-03-28T03:28:26.738Z,57.1
2023-03-28T03:29:27.676Z,56.8
2023-03-28T03:30:28.690Z,57.1
2023-03-28T03:31:29.746Z,57.4
2023-03-28T03:32:30.760Z,57.2
2023-03-28T03:33:32.601Z,57.4
2023-03-28T03:34:32.700Z,57.6
2023-03-28T03:35:33.770Z,57.5
2023-03-28T03:36:34.769Z,57.5
2023-03-28T03:37:35.680Z,57.2
2023-03-28T03:38:36.797Z,57.2
2023-03-28T03:39:37.786Z,57.3
2023-03-28T03:40:38.749Z,56.8
2023-03-28T03:41:39.655Z,56.6
2023-03-28T03:42:40.597Z,56.2
2023-03-28T03:43:41.717Z,56.2
2023-03-28T03:44:42.658Z,55.9
2023-03-28T03:45:43.713Z,56
2023-03-28T03:46:44.701Z,55.7
2023-03-28T03:47:45.712Z,55.4
2023-03-28T03:48:49.771Z,55.3
2023-03-28T03:49:47.663Z,55.4
2023-03-28T03:50:48.737Z,55.8
2023-03-28T03:51:49.705Z,55.8
2023-03-28T03:52:50.751Z,55.8
2023-03-28T03:53:51.691Z,56
2023-03-28T03:54:52.642Z,55.9
2023-03-28T03:55:53.655Z,55.7
2023-03-28T03:56:54.775Z,55.9
2023-03-28T03:57:55.658Z,56
2023-03-28T03:58:56.676Z,56.1
2023-03-28T03:59:57.675Z,56.1
2023-03-28T04:00:58.707Z,56
2023-03-28T04:01:59.680Z,55.6
2023-03-28T04:03:00.759Z,55.5
2023-03-28T04:04:01.804Z,55.1
2023-03-28T04:05:02.748Z,55.3
2023-03-28T04:06:03.735Z,54.7
2023-03-28T04:07:05.274Z,54.8
2023-03-28T04:08:06.701Z,54.7
2023-03-28T04:09:07.683Z,53.6
2023-03-28T04:10:08.638Z,53.8
2023-03-28T04:11:09.656Z,54.3
2023-03-28T04:12:10.796Z,54.3
2023-03-28T04:13:11.701Z,54
2023-03-28T04:14:12.677Z,54
2023-03-28T04:15:13.721Z,54.2
2023-03-28T04:16:14.715Z,54.4
2023-03-28T04:17:15.834Z,54.3
2023-03-28T04:18:16.925Z,54.4
2023-03-28T04:19:18.091Z,54.2
2023-03-28T04:20:18.782Z,54.7
2023-03-28T04:21:19.672Z,54.8
2023-03-28T04:22:20.697Z,54.9
2023-03-28T04:23:21.690Z,54.9
2023-03-28T04:24:22.702Z,54.9
2023-03-28T04:25:23.754Z,55.2
2023-03-28T04:26:24.654Z,55.2
2023-03-28T04:27:25.679Z,55.4
2023-03-28T04:28:26.898Z,56.7
2023-03-28T04:29:27.741Z,58.2
2023-03-28T04:30:28.785Z,58.9
2023-03-28T04:31:29.944Z,58.8
2023-03-28T04:32:30.754Z,58.4
2023-03-28T04:33:31.717Z,58.2
2023-03-28T04:34:32.810Z,58
2023-03-28T04:35:33.694Z,57.8
2023-03-28T04:36:34.740Z,57
2023-03-28T04:37:35.764Z,56.3
2023-03-28T04:38:36.879Z,56.3
2023-03-28T04:39:37.940Z,56
2023-03-28T04:40:38.813Z,55.9
2023-03-28T04:41:39.732Z,55.8
2023-03-28T04:42:40.742Z,55.9
2023-03-28T04:43:41.715Z,56.3
2023-03-28T04:44:42.865Z,56.3
2023-03-28T04:45:43.827Z,56.2
2023-03-28T04:46:44.625Z,55
2023-03-28T04:47:45.676Z,55.3
2023-03-28T04:48:46.717Z,55.2
2023-03-28T04:49:47.782Z,55.6
2023-03-28T04:50:48.739Z,55.7
2023-03-28T04:51:49.700Z,55.3
2023-03-28T04:52:50.729Z,54.7
2023-03-28T04:53:51.739Z,54.4
2023-03-28T04:54:52.879Z,53.9
2023-03-28T04:55:53.702Z,53.5
2023-03-28T04:56:54.785Z,52.9
2023-03-28T04:57:55.829Z,53.2
2023-03-28T04:58:56.734Z,53.7
2023-03-28T04:59:57.920Z,53.6
2023-03-28T05:00:58.879Z,53.7
2023-03-28T05:01:59.718Z,53.8
2023-03-28T05:03:00.721Z,53.8
2023-03-28T05:04:01.959Z,53.8
2023-03-28T05:05:02.789Z,54.1
2023-03-28T05:06:03.877Z,54.5
2023-03-28T05:07:04.917Z,55.2
2023-03-28T05:08:05.676Z,55.4
2023-03-28T05:09:06.792Z,55
2023-03-28T05:10:07.790Z,54.7
2023-03-28T05:11:08.752Z,54.2
2023-03-28T05:12:09.681Z,54.2
2023-03-28T05:13:10.698Z,53.9
2023-03-28T05:14:11.838Z,54
2023-03-28T05:15:21.283Z,53.9
2023-03-28T05:16:13.829Z,54.1
2023-03-28T05:17:14.714Z,53.4
2023-03-28T05:18:15.716Z,53.6
2023-03-28T05:19:16.853Z,53.8
2023-03-28T05:20:17.779Z,53.2
2023-03-28T05:21:18.760Z,53.8
2023-03-28T05:22:19.775Z,54.3
2023-03-28T05:23:20.820Z,55
2023-03-28T05:24:21.742Z,55.4
2023-03-28T05:25:22.640Z,55.9
2023-03-28T05:26:23.777Z,56.3
2023-03-28T05:27:24.711Z,56.4
2023-03-28T05:28:25.727Z,57
2023-03-28T05:29:26.858Z,57.3
2023-03-28T05:30:28.058Z,57.3
2023-03-28T05:31:28.781Z,57.8
2023-03-28T05:32:29.858Z,57.4
2023-03-28T05:33:30.690Z,58
2023-03-28T05:34:31.653Z,58.3
2023-03-28T05:35:32.840Z,58.2
2023-03-28T05:36:33.678Z,58.4
2023-03-28T05:37:34.655Z,58.1
2023-03-28T05:38:35.738Z,58.3
2023-03-28T05:39:36.637Z,58.5
2023-03-28T05:40:37.664Z,58.6
2023-03-28T05:41:38.735Z,58.5
2023-03-28T05:42:39.654Z,58.8
2023-03-28T05:43:40.749Z,58.6
2023-03-28T05:44:41.842Z,58.3
2023-03-28T05:45:43.098Z,58
2023-03-28T05:46:43.774Z,58.3
2023-03-28T05:47:44.780Z,57.9
2023-03-28T05:48:49.198Z,57.8
2023-03-28T05:49:46.901Z,57.2
2023-03-28T05:50:47.814Z,56.7
2023-03-28T05:51:48.871Z,56.4
2023-03-28T05:52:49.971Z,56.5
2023-03-28T05:53:50.870Z,56.6
2023-03-28T05:54:52.294Z,56.3
2023-03-28T05:55:52.923Z,56.4
2023-03-28T05:56:53.815Z,56.2
2023-03-28T05:57:54.754Z,56.3
2023-03-28T05:58:55.732Z,56.3
2023-03-28T05:59:56.714Z,56.5
2023-03-28T06:00:57.835Z,56.2
2023-03-28T06:01:58.743Z,55.9
2023-03-28T06:02:59.753Z,54.8
2023-03-28T06:04:00.683Z,54.2
2023-03-28T06:05:01.824Z,53.7
2023-03-28T06:06:03.021Z,53.9
2023-03-28T06:07:03.851Z,54.4
2023-03-28T06:08:04.948Z,54.3
2023-03-28T06:09:05.734Z,54.6
2023-03-28T06:10:06.763Z,54.3
2023-03-28T06:11:08.049Z,53.8
2023-03-28T06:12:08.737Z,53.7
2023-03-28T06:13:09.869Z,53.5
2023-03-28T06:14:10.754Z,53.5
2023-03-28T06:15:11.713Z,53
2023-03-28T06:16:12.769Z,52.5
2023-03-28T06:17:13.893Z,52
2023-03-28T06:18:15.072Z,51.7
2023-03-28T06:19:18.049Z,50.8
2023-03-28T06:20:16.951Z,50.6
2023-03-28T06:21:17.883Z,49.4
2023-03-28T06:22:18.771Z,49.1
2023-03-28T06:23:19.975Z,49.7
2023-03-28T06:24:20.936Z,50.1
2023-03-28T06:25:21.931Z,49.3
2023-03-28T06:26:22.847Z,49.1
2023-03-28T06:27:23.751Z,48.6
2023-03-28T06:28:24.810Z,48.1
2023-03-28T06:29:25.709Z,48.1
2023-03-28T06:30:26.770Z,48.6
2023-03-28T06:31:27.679Z,48.7
2023-03-28T06:32:28.811Z,49.1
2023-03-28T06:33:29.757Z,49.1
2023-03-28T06:34:30.782Z,49.6
2023-03-28T06:35:31.759Z,49.3
2023-03-28T06:36:32.749Z,48.3
2023-03-28T06:37:33.823Z,47.7
2023-03-28T06:38:34.800Z,47.6
2023-03-28T06:39:35.911Z,47.5
2023-03-28T06:40:36.892Z,48.5
2023-03-28T06:41:37.894Z,48.1
2023-03-28T06:42:38.919Z,48.4
2023-03-28T06:43:39.662Z,49
2023-03-28T06:44:40.745Z,48.9
2023-03-28T06:45:41.815Z,48.7
2023-03-28T06:46:43.463Z,48.7
2023-03-28T06:47:44.992Z,49
2023-03-28T06:48:45.844Z,49.1
2023-03-28T06:49:46.936Z,49.5
2023-03-28T06:50:47.906Z,49.5
2023-03-28T06:51:48.786Z,49.3
2023-03-28T06:52:49.882Z,49.3
2023-03-28T06:53:50.773Z,49.4
2023-03-28T06:54:51.782Z,49.6
2023-03-28T06:55:52.754Z,49.4
2023-03-28T06:56:53.802Z,49.5
2023-03-28T06:57:54.889Z,49
2023-03-28T06:58:55.926Z,49.1
2023-03-28T06:59:56.777Z,49.2
2023-03-28T07:00:57.815Z,48.9
2023-03-28T07:01:58.734Z,48.6
2023-03-28T07:02:59.834Z,48.8
2023-03-28T07:04:00.845Z,48.2
2023-03-28T07:05:01.750Z,48
2023-03-28T07:06:02.702Z,46.8
2023-03-28T07:07:03.790Z,46.5
2023-03-28T07:08:04.858Z,46.8
2023-03-28T07:09:06.794Z,46.4
2023-03-28T07:10:06.782Z,46.7
2023-03-28T07:11:07.815Z,47.3
2023-03-28T07:12:08.757Z,47.5
2023-03-28T07:13:09.761Z,47.2
2023-03-28T07:14:11.090Z,47
2023-03-28T07:15:11.787Z,47.2
2023-03-28T07:16:12.916Z,47.4
2023-03-28T07:17:13.899Z,47
2023-03-28T07:18:14.720Z,46.6
2023-03-28T07:19:15.797Z,46.9
2023-03-28T07:20:16.763Z,47.3
2023-03-28T07:21:17.820Z,46.8
2023-03-28T07:22:19.068Z,46.1
2023-03-28T07:23:19.738Z,46
2023-03-28T07:24:20.744Z,46
2023-03-28T07:25:21.769Z,46.3
2023-03-28T07:26:22.757Z,45.7
2023-03-28T07:27:24.920Z,45.7
2023-03-28T07:28:24.843Z,45.1
2023-03-28T07:29:25.784Z,45.1
2023-03-28T07:30:26.772Z,45.1
2023-03-28T07:31:27.729Z,45.1
2023-03-28T07:32:39.175Z,46.1
2023-03-28T07:33:35.444Z,45.8
2023-03-28T07:34:30.765Z,45.4
2023-03-28T07:35:31.811Z,45.4
2023-03-28T07:36:32.727Z,45.2
2023-03-28T07:37:33.782Z,45.6
2023-03-28T07:38:34.853Z,46.4
2023-03-28T07:39:35.926Z,46.3
2023-03-28T07:40:36.899Z,46.4
2023-03-28T07:41:37.918Z,45.8
2023-03-28T07:42:38.937Z,46.4
2023-03-28T07:43:39.951Z,45.5
2023-03-28T07:44:42.328Z,45.5
2023-03-28T07:45:41.842Z,45.7
2023-03-28T07:46:43.393Z,46.1
2023-03-28T07:47:44.954Z,47.4
2023-03-28T07:48:45.791Z,47.7
2023-03-28T07:49:46.774Z,48.8
2023-03-28T07:50:47.776Z,50
2023-03-28T07:51:48.836Z,49.9
2023-03-28T07:52:49.793Z,48.9
2023-03-28T07:53:50.710Z,48.9
2023-03-28T07:54:51.831Z,48.6
2023-03-28T07:55:55.384Z,48.2
2023-03-28T07:56:53.739Z,47.4
2023-03-28T07:57:54.797Z,47.2
2023-03-28T07:58:55.778Z,47.5
2023-03-28T07:59:56.840Z,47.9
2023-03-28T08:00:57.989Z,48.1
2023-03-28T08:01:58.753Z,47.9
2023-03-28T08:02:59.849Z,47
2023-03-28T08:04:00.933Z,45.8
2023-03-28T08:05:01.878Z,45.3
2023-03-28T08:06:02.971Z,44.8
2023-03-28T08:07:03.922Z,44.6
2023-03-28T08:08:04.725Z,44.3
2023-03-28T08:09:05.841Z,44.2
2023-03-28T08:10:06.827Z,43.1
2023-03-28T08:11:07.898Z,43.3
2023-03-28T08:12:08.806Z,43.7
2023-03-28T08:13:09.763Z,43.6
2023-03-28T08:14:10.779Z,43.6
2023-03-28T08:15:11.803Z,43.6
2023-03-28T08:16:12.830Z,43.6
2023-03-28T08:17:13.856Z,42.9
2023-03-28T08:18:14.796Z,40.4
2023-03-28T08:19:15.859Z,39.4
2023-03-28T08:20:16.937Z,39.7
2023-03-28T08:21:17.764Z,39.7
2023-03-28T08:22:18.801Z,40
2023-03-28T08:23:19.839Z,40
2023-03-28T08:24:29.196Z,39.1
2023-03-28T08:25:21.808Z,38.1
2023-03-28T08:26:22.826Z,38
2023-03-28T08:27:23.809Z,37.4
2023-03-28T08:28:24.734Z,37.9
2023-03-28T08:29:25.823Z,38.9
2023-03-28T08:30:27.038Z,39.3
2023-03-28T08:31:27.764Z,40.1
2023-03-28T08:32:28.761Z,40.5
2023-03-28T08:33:29.868Z,40.9
2023-03-28T08:34:30.846Z,41.1
2023-03-28T08:35:31.856Z,41.1
2023-03-28T08:36:32.839Z,41.5
2023-03-28T08:37:33.832Z,43.1
2023-03-28T08:38:34.806Z,43.2
2023-03-28T08:39:35.776Z,43.6
2023-03-28T08:40:36.798Z,43.3
2023-03-28T08:41:38.063Z,43.1
2023-03-28T08:42:38.840Z,43.5
2023-03-28T08:43:39.835Z,42.8
2023-03-28T08:44:40.789Z,42.2
2023-03-28T08:45:41.792Z,41.9
2023-03-28T08:46:43.438Z,40.7
2023-03-28T08:47:44.779Z,39.5
2023-03-28T08:48:45.856Z,39
2023-03-28T08:49:46.845Z,39.7
2023-03-28T08:50:47.808Z,40.6
2023-03-28T08:51:48.796Z,40
2023-03-28T08:52:49.927Z,39.5
2023-03-28T08:53:50.826Z,39.1
2023-03-28T08:54:51.818Z,39.1
2023-03-28T08:55:53.720Z,41.9
2023-03-28T08:56:53.835Z,46
2023-03-28T08:57:54.843Z,52.3
2023-03-28T08:58:55.762Z,57
2023-03-28T08:59:56.947Z,61
2023-03-28T09:00:57.853Z,63.3
2023-03-28T09:01:58.767Z,64.6
2023-03-28T09:03:00.052Z,65.6
2023-03-28T09:04:00.966Z,66.3
2023-03-28T09:05:12.327Z,66.6
2023-03-28T09:06:02.989Z,66.5
2023-03-28T09:07:03.785Z,66.1
2023-03-28T09:08:04.869Z,65.1
2023-03-28T09:09:05.765Z,64.7
2023-03-28T09:10:06.911Z,64.7
2023-03-28T09:11:07.883Z,64.6
2023-03-28T09:12:09.050Z,64.5
2023-03-28T09:13:09.952Z,64.5
2023-03-28T09:14:10.934Z,62.5
2023-03-28T09:15:11.816Z,62
2023-03-28T09:16:12.867Z,62.6
2023-03-28T09:17:13.849Z,61.6
2023-03-28T09:18:14.854Z,58.8
2023-03-28T09:19:15.840Z,58
2023-03-28T09:20:16.937Z,57.5
2023-03-28T09:21:17.938Z,58.8
2023-03-28T09:22:18.785Z,60
2023-03-28T09:23:19.796Z,59.5
2023-03-28T09:24:21.014Z,58.7
2023-03-28T09:25:21.822Z,57.9
2023-03-28T09:26:22.856Z,57.4
2023-03-28T09:27:23.864Z,55.2
2023-03-28T09:28:24.780Z,53.6
2023-03-28T09:29:25.786Z,53
2023-03-28T09:30:26.817Z,53.3
2023-03-28T09:31:28.045Z,53
2023-03-28T09:32:28.870Z,51.4
2023-03-28T09:33:30.120Z,51.5
2023-03-28T09:34:31.016Z,52.2
2023-03-28T09:35:32.023Z,52.4
2023-03-28T09:36:41.546Z,52.5
2023-03-28T09:37:33.858Z,51.8
2023-03-28T09:38:34.773Z,51.6
2023-03-28T09:39:35.916Z,52.4
2023-03-28T09:40:36.891Z,52.5
2023-03-28T09:41:37.782Z,52.2
2023-03-28T09:42:38.944Z,51.2
2023-03-28T09:43:39.827Z,48.8
2023-03-28T09:44:53.277Z,49.2
2023-03-28T09:45:43.353Z,48
2023-03-28T09:46:44.920Z,46.3
2023-03-28T09:47:46.026Z,46
2023-03-28T09:48:46.910Z,44.3
2023-03-28T09:49:48.628Z,44.7
2023-03-28T09:50:48.925Z,45.7
2023-03-28T09:51:49.879Z,45.4
2023-03-28T09:52:51.019Z,42.6
2023-03-28T09:53:51.917Z,41.5
2023-03-28T09:54:52.917Z,41.6
2023-03-28T09:56:01.838Z,41.6
2023-03-28T09:56:54.935Z,41
2023-03-28T09:57:55.916Z,41
2023-03-28T09:58:56.840Z,41.3
2023-03-28T09:59:57.876Z,40.4
2023-03-28T10:00:59.032Z,39.5
2023-03-28T10:02:00.344Z,38.3
2023-03-28T10:03:01.980Z,38.3
2023-03-28T10:04:02.891Z,36.8
2023-03-28T10:05:06.081Z,36.9
2023-03-28T10:06:04.875Z,36.4
2023-03-28T10:07:05.828Z,37.2
2023-03-28T10:08:06.882Z,38.1
2023-03-28T10:09:07.812Z,37.8
2023-03-28T10:10:08.847Z,38.6
2023-03-28T10:11:09.904Z,37.3
2023-03-28T10:12:10.917Z,35.3
2023-03-28T10:13:11.934Z,33.4
2023-03-28T10:14:12.916Z,32.6
2023-03-28T10:15:13.915Z,32.4
2023-03-28T10:16:15.007Z,33.5
2023-03-28T10:17:15.953Z,32.4
2023-03-28T10:18:16.874Z,32.1
2023-03-28T10:19:17.865Z,30.9
2023-03-28T10:20:18.951Z,30.2
2023-03-28T10:21:20.062Z,29.7
2023-03-28T10:22:21.175Z,28.9
2023-03-28T10:23:21.841Z,29.5
2023-03-28T10:24:22.896Z,30
2023-03-28T10:25:23.886Z,31.7
2023-03-28T10:26:25.001Z,31.9
2023-03-28T10:27:26.017Z,31.8
2023-03-28T10:28:27.056Z,32.5
2023-03-28T10:29:27.837Z,33.8
2023-03-28T10:30:28.879Z,33.3
2023-03-28T10:31:29.929Z,32.5
2023-03-28T10:32:30.888Z,31.4
2023-03-28T10:33:31.835Z,30.1
2023-03-28T10:34:32.840Z,29.6
2023-03-28T10:35:33.921Z,31.4
2023-03-28T10:36:34.826Z,31.9
2023-03-28T10:37:35.811Z,30.1
2023-03-28T10:38:37.037Z,29.4
2023-03-28T10:39:38.006Z,28.6
2023-03-28T10:40:38.886Z,27.9
2023-03-28T10:41:39.807Z,28.2
2023-03-28T10:42:40.859Z,27.7
2023-03-28T10:43:41.947Z,27.6
2023-03-28T10:44:42.873Z,27.7
2023-03-28T10:45:43.859Z,27.2
2023-03-28T10:46:44.991Z,27.8
2023-03-28T10:47:46.050Z,26.8
2023-03-28T10:48:47.021Z,27.3
2023-03-28T10:49:47.940Z,27.1
2023-03-28T10:50:49.051Z,26.5
2023-03-28T10:51:49.843Z,26.5
2023-03-28T10:52:50.833Z,26.2
2023-03-28T10:53:51.860Z,25.2
2023-03-28T10:54:52.982Z,24.1
2023-03-28T10:55:53.843Z,24.2
2023-03-28T10:56:54.875Z,24.5
2023-03-28T10:57:55.830Z,24.5
2023-03-28T10:58:56.855Z,25
2023-03-28T10:59:57.852Z,24.9
2023-03-28T11:00:59.120Z,25.4
2023-03-28T11:01:59.910Z,26.5
2023-03-28T11:03:00.946Z,26.5
2023-03-28T11:04:02.094Z,26.2
2023-03-28T11:05:02.840Z,26.5
2023-03-28T11:06:09.782Z,27.9
2023-03-28T11:07:04.808Z,28.7
2023-03-28T11:08:05.924Z,29.6
2023-03-28T11:09:06.828Z,30
2023-03-28T11:10:07.826Z,30.2
2023-03-28T11:11:08.886Z,31.2
2023-03-28T11:12:12.985Z,33.6
2023-03-28T11:13:10.950Z,34.8
2023-03-28T11:14:11.961Z,35.7
2023-03-28T11:15:12.923Z,36
2023-03-28T11:16:13.854Z,36.6
2023-03-28T11:17:14.832Z,36.7
2023-03-28T11:18:15.883Z,37.6
2023-03-28T11:19:16.817Z,38.3
2023-03-28T11:20:17.900Z,38.2
2023-03-28T11:21:18.874Z,37
2023-03-28T11:22:19.895Z,35.8
2023-03-28T11:23:21.015Z,37.3
2023-03-28T11:24:21.863Z,37.6
2023-03-28T11:25:22.931Z,36.3
2023-03-28T11:26:24.051Z,37
2023-03-28T11:27:24.802Z,36.8
2023-03-28T11:28:25.802Z,35.6
2023-03-28T11:29:36.777Z,35.3
2023-03-28T11:30:27.850Z,34.6
2023-03-28T11:31:28.899Z,33.8
2023-03-28T11:32:29.835Z,35.6
2023-03-28T11:33:30.888Z,33.9
2023-03-28T11:34:31.867Z,31.8
2023-03-28T11:35:32.884Z,33.2
2023-03-28T11:36:33.932Z,33.4
2023-03-28T11:37:34.850Z,32.1
2023-03-28T11:38:35.836Z,31.5
2023-03-28T11:39:36.928Z,29.7
2023-03-28T11:40:37.857Z,29
2023-03-28T11:41:38.881Z,29
2023-03-28T11:42:39.934Z,29.4
2023-03-28T11:43:41.035Z,29.6
2023-03-28T11:44:41.960Z,30
2023-03-28T11:45:51.734Z,30.8
2023-03-28T11:46:44.204Z,30.7
2023-03-28T11:47:44.955Z,31.3
2023-03-28T11:48:45.836Z,32.4
2023-03-28T11:49:46.864Z,34.1
2023-03-28T11:50:47.879Z,36.3
2023-03-28T11:51:48.860Z,37.4
2023-03-28T11:52:50.021Z,37.9
2023-03-28T11:53:50.964Z,39.4
2023-03-28T11:54:52.086Z,40.7
2023-03-28T11:55:52.836Z,40.2
2023-03-28T11:56:53.910Z,39.1
2023-03-28T11:57:54.876Z,39.9
2023-03-28T11:58:56.000Z,40.6
2023-03-28T11:59:57.023Z,40.5
2023-03-28T12:00:58.230Z,40.5
2023-03-28T12:01:58.982Z,38.9
2023-03-28T12:02:59.975Z,38.2
2023-03-28T12:04:01.106Z,36.5
2023-03-28T12:05:01.995Z,36.3
2023-03-28T12:06:05.119Z,36.7
2023-03-28T12:07:03.831Z,36.4
2023-03-28T12:08:04.959Z,35.4
2023-03-28T12:09:05.983Z,34.4
2023-03-28T12:10:06.877Z,32.9
2023-03-28T12:11:07.956Z,33.3
2023-03-28T12:12:09.084Z,34.2
2023-03-28T12:13:10.052Z,33.7
2023-03-28T12:14:12.388Z,34.5
2023-03-28T12:15:11.870Z,34.2
2023-03-28T12:16:13.013Z,33.1
2023-03-28T12:17:13.931Z,32.8
2023-03-28T12:18:14.892Z,32.9
2023-03-28T12:19:15.900Z,33
2023-03-28T12:20:17.072Z,33
2023-03-28T12:21:18.089Z,36.3
2023-03-28T12:22:18.934Z,41.3
2023-03-28T12:23:20.074Z,45.3
2023-03-28T12:24:20.902Z,48.4
2023-03-28T12:25:22.061Z,51.3
2023-03-28T12:26:23.468Z,54.1
2023-03-28T12:27:24.951Z,56.1
2023-03-28T12:28:25.893Z,56.6
2023-03-28T12:29:26.933Z,57.1
2023-03-28T12:30:28.005Z,58.1
2023-03-28T12:31:29.060Z,58.7
2023-03-28T12:32:29.983Z,59.5
2023-03-28T12:33:30.992Z,59.4
2023-03-28T12:34:32.291Z,58.4
2023-03-28T12:35:34.080Z,58.7
2023-03-28T12:36:35.099Z,57.9
2023-03-28T12:37:36.101Z,56.6
2023-03-28T12:38:37.017Z,56.2
2023-03-28T12:39:37.991Z,55.8
2023-03-28T12:40:38.989Z,56.1
2023-03-28T12:41:39.983Z,54.6
2023-03-28T12:42:41.024Z,52.8
2023-03-28T12:43:41.973Z,52.6
2023-03-28T12:44:43.037Z,51.9
2023-03-28T12:45:44.014Z,50.9
2023-03-28T12:46:44.863Z,50.7
2023-03-28T12:47:46.152Z,50.5
2023-03-28T12:48:47.028Z,50.9
2023-03-28T12:49:48.051Z,50.3
2023-03-28T12:50:49.033Z,49.8
2023-03-28T12:51:50.079Z,48
2023-03-28T12:52:53.683Z,47.4
2023-03-28T12:53:54.971Z,47.5
2023-03-28T12:54:56.227Z,46.7
2023-03-28T12:55:57.022Z,47.2
2023-03-28T12:56:57.997Z,48
2023-03-28T12:57:58.997Z,46.7
2023-03-28T12:59:00.042Z,46
2023-03-28T13:00:00.855Z,46.6
2023-03-28T13:01:02.025Z,44.6
2023-03-28T13:02:03.018Z,43.6
2023-03-28T13:03:04.103Z,44.8
2023-03-28T13:04:04.968Z,44.4
2023-03-28T13:05:05.916Z,42.8
2023-03-28T13:06:06.968Z,42
2023-03-28T13:07:07.966Z,42.8
2023-03-28T13:08:08.855Z,40.7
2023-03-28T13:09:09.890Z,39.6
2023-03-28T13:10:11.036Z,39.2
2023-03-28T13:11:11.954Z,37.7
2023-03-28T13:12:12.918Z,35.9
2023-03-28T13:13:14.021Z,35.4
2023-03-28T13:14:15.087Z,33.2
2023-03-28T13:15:15.886Z,32.2
2023-03-28T13:16:17.128Z,29.8
2023-03-28T13:17:18.034Z,30.1
2023-03-28T13:18:19.042Z,29.5
2023-03-28T13:19:20.110Z,30.6
2023-03-28T13:20:21.056Z,31.1
2023-03-28T13:21:22.034Z,31.6
2023-03-28T13:22:23.040Z,32.6
2023-03-28T13:23:24.004Z,32.3
2023-03-28T13:24:25.053Z,31.3
2023-03-28T13:25:26.069Z,30.8
2023-03-28T13:26:27.106Z,30.5
2023-03-28T13:27:28.055Z,31.2
2023-03-28T13:28:29.087Z,32.2
2023-03-28T13:29:30.072Z,33.3
2023-03-28T13:30:31.016Z,33.8
2023-03-28T13:31:32.017Z,33.5
2023-03-28T13:32:32.894Z,32.5
2023-03-28T13:33:33.968Z,32.4
2023-03-28T13:34:35.094Z,32.2
2023-03-28T13:35:36.120Z,32.6
2023-03-28T13:36:38.040Z,34.4